Daily Tabular Data
[Select Refresh to Update]


10/18/18
Time         Wind Dir   Wind Spd  Wind Gust     Hum In   Humidity    Temp In       Temp  Raw Barom   Tot Rain Wind Chill Heat Ix In Heat Index  Dew Point  DailyRain   HourRain   RainRate
                            mph        mph          %          %         F         F         in         in         F         F         F         F         in         in      in/hr
12:00am           145          0          2         36         47       75.3       62.1      29.20       0.60       62.1       74.9       62.6       41.7       0.00       0.00      0.000
12:30am           175          1          2         36         46       75.2       62.2      29.19       0.60       62.2       74.8       62.6       41.2       0.00       0.00      0.000
1:00am            163          0          3         36         43       75.1       62.7      29.19       0.60       62.7       74.7       62.9       39.9       0.00       0.00      0.000
1:30am            163          0          2         36         45       75.1       61.6      29.19       0.60       61.6       74.7       61.9       40.1       0.00       0.00      0.000
2:00am            177          0          1         35         47       75.0       61.4      29.19       0.60       61.4       74.5       61.9       41.0       0.00       0.00      0.000
2:30am            177          0          0         35         42       74.9       62.7      29.19       0.60       62.7       74.4       62.8       39.3       0.00       0.00      0.000
3:00am            159          1          1         35         44       74.8       62.9      29.18       0.60       62.9       74.3       63.2       40.7       0.00       0.00      0.000
3:30am            155          0          2         35         42       74.6       62.6      29.18       0.60       62.6       74.1       62.7       39.2       0.00       0.00      0.000
4:00am            177          0          2         35         43       74.6       63.3      29.18       0.60       63.3       74.1       63.5       40.4       0.00       0.00      0.000
4:30am            138          0          2         35         38       74.4       64.6      29.18       0.60       64.6       73.9       64.4       38.4       0.00       0.00      0.000
5:00am            171          2          4         35         40       74.3       63.7      29.18       0.60       63.7       73.8       63.6       38.9       0.00       0.00      0.000
5:30am             19          0          5         35         46       74.2       60.9      29.19       0.60       60.9       73.7       61.3       40.0       0.00       0.00      0.000
6:00am            166          0          3         35         44       74.1       61.6      29.19       0.60       61.6       73.6       61.9       39.5       0.00       0.00      0.000
6:30am            178          0          3         35         39       73.9       64.1      29.19       0.60       64.1       73.4       63.9       38.7       0.00       0.00      0.000
7:00am             19          0          2         35         43       73.8       62.6      29.20       0.60       62.6       73.3       62.8       39.8       0.00       0.00      0.000
7:30am            180          2          3         35         45       73.7       60.9      29.21       0.60       60.9       73.2       61.2       39.4       0.00       0.00      0.000
8:00am            178          0          4         35         40       73.6       66.5      29.21       0.60       66.5       73.1       66.4       41.5       0.00       0.00      0.000
8:30am            220          0          1         35         39       73.6       69.7      29.22       0.60       69.7       73.1       69.5       43.7       0.00       0.00      0.000
9:00am            220          0          1         34         36       74.1       69.6      29.23       0.60       69.6       73.6       69.2       41.5       0.00       0.00      0.000
9:30am            262          0          0         33         32       74.7       72.3      29.23       0.60       72.3       74.1       71.6       40.8       0.00       0.00      0.000
10:00am           327          0          0         30         28       78.3       75.5      29.22       0.60       75.5       77.5       74.6       40.1       0.00       0.00      0.000
10:30am           295          0          3         32         25       75.6       78.5      29.21       0.60       78.5       74.9       77.4       39.8       0.00       0.00      0.000
11:00am           227          3          4         33         27       74.9       79.8      29.21       0.60       79.8       74.3       78.8       42.9       0.00       0.00      0.000
11:30am           340          0          3         33         24       74.7       83.4      29.20       0.60       83.4       74.1       81.1       42.9       0.00       0.00      0.000
12:00pm           345          1          8         34         23       74.7       82.1      29.19       0.60       82.1       74.2       80.1       40.7       0.00       0.00      0.000
12:30pm           340          1          7         34         21       74.8       83.3      29.18       0.60       83.3       74.3       80.8       39.3       0.00       0.00      0.000
1:00pm            204          4          6         33         22       74.9       86.4      29.16       0.60       86.4       74.3       83.3       43.1       0.00       0.00      0.000
1:30pm            144          3         12         35         16       75.1       88.7      29.14       0.60       88.7       74.6       84.9       36.8       0.00       0.00      0.000
2:00pm            213          1         10         35         15       75.3       89.0      29.12       0.60       89.0       74.8       85.1       35.4       0.00       0.00      0.000
2:30pm            313          0         15         35         26       75.5       84.4      29.12       0.60       84.4       75.0       82.0       45.8       0.00       0.00      0.000
3:00pm              9          3         11         36         26       75.7       83.9      29.12       0.60       83.9       75.3       81.6       45.4       0.00       0.00      0.000
3:30pm             25          5         10         36         25       75.9       82.7      29.12       0.60       82.7       75.5       80.6       43.3       0.00       0.00      0.000
4:00pm            323          2         12         36         26       76.1       82.1      29.12       0.60       82.1       75.7       80.3       43.9       0.00       0.00      0.000
4:30pm             13          5         11         36         27       76.2       80.2      29.12       0.60       80.2       75.8       79.1       43.2       0.00       0.00      0.000
5:00pm            336          0          9         37         28       76.4       80.3      29.12       0.60       80.3       76.1       79.2       44.3       0.00       0.00      0.000
5:30pm            339          0         12         37         29       76.4       79.0      29.12       0.60       79.0       76.1       78.1       44.1       0.00       0.00      0.000
6:00pm            301          0          3         37         33       76.5       78.0      29.13       0.60       78.0       76.2       77.4       46.6       0.00       0.00      0.000
6:30pm             26          0          0         37         36       76.6       74.4      29.14       0.60       74.4       76.3       74.0       45.7       0.00       0.00      0.000
7:00pm             26          0          0         37         40       76.7       72.0      29.15       0.60       72.0       76.4       71.9       46.4       0.00       0.00      0.000
7:30pm            138          0          0         37         43       76.7       71.8      29.16       0.60       71.8       76.4       72.0       48.1       0.00       0.00      0.000
8:00pm            149          0          2         37         34       76.7       71.9      29.17       0.60       71.9       76.4       71.4       42.0       0.00       0.00      0.000
8:30pm             86          2          3         37         35       76.6       69.9      29.16       0.60       69.9       76.3       69.4       41.0       0.00       0.00      0.000
9:00pm            158          0          2         37         29       76.6       72.4      29.16       0.60       72.4       76.3       71.5       38.4       0.00       0.00      0.000
9:30pm            182          0          0         37         33       76.5       69.8      29.16       0.60       69.8       76.2       69.2       39.4       0.00       0.00      0.000
10:00pm           168          0          4         37         36       76.5       68.4      29.16       0.60       68.4       76.2       68.0       40.4       0.00       0.00      0.000
10:30pm           165          0          4         37         41       76.5       66.3      29.17       0.60       66.3       76.2       66.3       41.9       0.00       0.00      0.000
11:00pm           174          0          1         36         38       76.4       67.8      29.17       0.60       67.8       76.0       67.6       41.3       0.00       0.00      0.000
11:30pm           175          1          2         36         39       76.3       65.0      29.16       0.60       65.0       75.9       64.8       39.5       0.00       0.00      0.000